Time;durP1;ratioP1;P1;durP2;ratioP2;P2;SDS_P1;SDS_P2;PMS_P1;PMS_P2;Temp;Humidity;BMP_temperature;BMP_pressure;BME280_temperature;BME280_humidity;BME280_pressure;Samples;Min_cycle;Max_cycle;Signal;HPM_P1;HPM_P2
2024/03/31 00:00:26;;;;;;;1.90;1.50;;;12.30;99.90;;;;;;4995323;28;20889;-46
2024/03/31 00:02:52;;;;;;;2.40;1.47;;;12.30;99.90;;;;;;4993306;28;20429;-46
2024/03/31 00:05:20;;;;;;;2.80;1.40;;;12.30;99.90;;;;;;4993204;28;20534;-46
2024/03/31 00:07:46;;;;;;;2.40;1.87;;;12.30;99.90;;;;;;4996234;28;20469;-46
2024/03/31 00:10:13;;;;;;;2.40;1.67;;;12.30;99.90;;;;;;4995031;28;20543;-46
2024/03/31 00:12:44;;;;;;;1.60;1.03;;;12.30;99.90;;;;;;4999327;28;20452;-46
2024/03/31 00:15:11;;;;;;;2.70;1.70;;;12.30;99.90;;;;;;4995336;28;20520;-46
2024/03/31 00:17:37;;;;;;;2.73;2.07;;;12.30;99.90;;;;;;4994813;28;20428;-46
2024/03/31 00:20:05;;;;;;;2.20;1.33;;;12.30;99.90;;;;;;4999370;28;20557;-46
2024/03/31 00:22:31;;;;;;;2.27;1.47;;;12.30;99.90;;;;;;4998069;28;20434;-46
2024/03/31 00:24:59;;;;;;;1.70;1.33;;;12.30;99.90;;;;;;5002784;28;20429;-46
2024/03/31 00:27:25;;;;;;;2.73;2.30;;;12.30;99.90;;;;;;4996519;28;20455;-46
2024/03/31 00:29:53;;;;;;;1.80;1.37;;;12.30;99.90;;;;;;4983992;28;20534;-46
2024/03/31 00:32:19;;;;;;;1.93;1.50;;;12.30;99.90;;;;;;4999155;28;20484;-46
2024/03/31 00:34:47;;;;;;;2.27;1.47;;;12.30;99.90;;;;;;4977026;28;20469;-46
2024/03/31 00:37:13;;;;;;;2.37;1.80;;;12.30;99.90;;;;;;4995727;28;20456;-47
2024/03/31 00:39:41;;;;;;;1.70;1.27;;;12.30;99.90;;;;;;4983400;28;20492;-46
2024/03/31 00:42:09;;;;;;;2.37;1.47;;;12.30;99.90;;;;;;4978365;28;21029;-46
2024/03/31 00:44:36;;;;;;;3.60;3.00;;;12.30;99.90;;;;;;4992529;28;20434;-46
2024/03/31 00:47:04;;;;;;;3.97;2.87;;;12.30;99.90;;;;;;5000618;28;20449;-47
2024/03/31 00:49:31;;;;;;;4.10;2.50;;;12.30;99.90;;;;;;4997701;28;20554;-46
2024/03/31 00:51:57;;;;;;;2.73;1.87;;;12.30;99.90;;;;;;4996208;28;20489;-47
2024/03/31 00:54:24;;;;;;;2.13;1.30;;;12.30;99.90;;;;;;4977655;28;20465;-46
2024/03/31 00:56:51;;;;;;;2.47;2.03;;;12.30;99.90;;;;;;4976212;28;20442;-45
2024/03/31 00:59:18;;;;;;;2.43;1.30;;;12.30;99.90;;;;;;4990769;28;20477;-46
2024/03/31 01:01:44;;;;;;;2.33;1.67;;;12.30;99.90;;;;;;4991863;28;20430;-46
2024/03/31 01:04:13;;;;;;;2.03;1.53;;;12.30;99.90;;;;;;4990431;28;20437;-46
2024/03/31 01:06:39;;;;;;;2.30;1.47;;;12.30;99.90;;;;;;4998710;28;20795;-46
2024/03/31 01:09:08;;;;;;;1.93;1.33;;;12.30;99.90;;;;;;4992518;28;20466;-47
2024/03/31 01:11:36;;;;;;;2.70;2.10;;;12.30;99.90;;;;;;4980492;28;20508;-48
2024/03/31 01:14:05;;;;;;;2.80;2.30;;;12.30;99.90;;;;;;4981287;28;20436;-46
2024/03/31 01:16:35;;;;;;;2.30;1.50;;;12.30;99.90;;;;;;4983270;28;20441;-47
2024/03/31 01:19:02;;;;;;;2.07;1.50;;;12.30;99.90;;;;;;4983384;28;20560;-47
2024/03/31 01:21:33;;;;;;;1.80;1.40;;;12.30;99.90;;;;;;4997547;28;20946;-46
2024/03/31 01:24:02;;;;;;;3.63;2.77;;;12.30;99.90;;;;;;5005334;28;20457;-47
2024/03/31 01:26:28;;;;;;;2.30;1.80;;;12.30;99.90;;;;;;4976869;28;20449;-48
2024/03/31 01:28:56;;;;;;;2.57;2.00;;;12.30;99.90;;;;;;4995365;28;20462;-46
2024/03/31 01:31:24;;;;;;;3.00;1.80;;;12.30;99.90;;;;;;4991962;28;20433;-47
2024/03/31 01:33:51;;;;;;;2.53;1.90;;;12.30;99.90;;;;;;4999362;28;20449;-47
2024/03/31 01:36:18;;;;;;;2.03;1.47;;;12.30;99.90;;;;;;4982692;28;20446;-47
2024/03/31 01:38:45;;;;;;;2.27;1.67;;;12.30;99.90;;;;;;4993470;28;21047;-48
2024/03/31 01:41:13;;;;;;;2.40;1.90;;;12.30;99.90;;;;;;5002619;28;20441;-47
2024/03/31 01:43:41;;;;;;;1.80;1.50;;;12.30;99.90;;;;;;4996134;28;20450;-46
2024/03/31 01:46:08;;;;;;;1.80;1.50;;;12.20;99.90;;;;;;4990964;28;20427;-46
2024/03/31 01:48:36;;;;;;;2.77;2.10;;;12.30;99.90;;;;;;4991421;28;21030;-46
2024/03/31 01:51:02;;;;;;;1.70;1.40;;;12.30;99.90;;;;;;4988201;28;20442;-46
2024/03/31 01:53:29;;;;;;;3.43;1.70;;;12.30;99.90;;;;;;5001967;28;21006;-46
2024/03/31 01:55:55;;;;;;;2.07;1.43;;;12.20;99.90;;;;;;4995803;28;21027;-47
2024/03/31 01:58:24;;;;;;;2.50;1.60;;;12.30;99.90;;;;;;4995266;28;20466;-47
2024/03/31 02:00:50;;;;;;;1.73;1.30;;;12.30;99.90;;;;;;4999967;28;20449;-47
2024/03/31 02:03:17;;;;;;;1.83;1.40;;;12.30;99.90;;;;;;4998829;28;20694;-47
2024/03/31 02:05:43;;;;;;;2.10;1.40;;;12.30;99.90;;;;;;4981588;28;20799;-48
2024/03/31 02:08:10;;;;;;;2.67;1.97;;;12.30;99.90;;;;;;4999459;28;20773;-48
2024/03/31 02:10:36;;;;;;;2.70;2.00;;;12.30;99.90;;;;;;4999228;28;20466;-47
2024/03/31 02:13:04;;;;;;;2.97;2.30;;;12.20;99.90;;;;;;4990759;28;20465;-47
2024/03/31 02:15:32;;;;;;;2.40;2.00;;;12.20;99.90;;;;;;4993093;28;20446;-47
2024/03/31 02:18:00;;;;;;;2.73;2.50;;;12.20;99.90;;;;;;4982942;28;20962;-46
2024/03/31 02:20:26;;;;;;;3.13;2.40;;;12.20;99.90;;;;;;5001282;28;20465;-46
2024/03/31 02:22:53;;;;;;;2.13;1.90;;;12.20;99.90;;;;;;5000541;28;20429;-46
2024/03/31 02:25:19;;;;;;;2.40;1.77;;;12.20;99.90;;;;;;4991444;28;20839;-46
2024/03/31 02:27:46;;;;;;;2.33;1.20;;;12.20;99.90;;;;;;5001790;28;20520;-46
2024/03/31 02:30:13;;;;;;;4.27;3.00;;;12.20;99.90;;;;;;5004723;28;20453;-46
2024/03/31 02:32:41;;;;;;;2.33;2.00;;;12.20;99.90;;;;;;4988244;28;20927;-46
2024/03/31 02:35:08;;;;;;;3.20;2.40;;;12.20;99.90;;;;;;4995242;28;20893;-47
2024/03/31 02:37:35;;;;;;;2.83;1.93;;;12.20;99.90;;;;;;4992295;28;20461;-46
2024/03/31 02:40:01;;;;;;;2.53;1.73;;;12.20;99.90;;;;;;4996941;28;20528;-46
2024/03/31 02:42:29;;;;;;;3.20;2.20;;;12.20;99.90;;;;;;4976604;28;20445;-46
2024/03/31 02:44:55;;;;;;;2.00;1.60;;;12.20;99.90;;;;;;4982172;28;20437;-47
2024/03/31 02:47:22;;;;;;;3.03;1.77;;;12.20;99.90;;;;;;4998366;28;20521;-46
2024/03/31 02:49:50;;;;;;;2.67;1.80;;;12.20;99.90;;;;;;4981928;28;20465;-46
2024/03/31 02:52:17;;;;;;;3.70;1.80;;;12.20;99.90;;;;;;4990481;28;20441;-46
2024/03/31 02:54:46;;;;;;;2.13;1.73;;;12.20;99.90;;;;;;4993806;28;20429;-46
2024/03/31 02:57:14;;;;;;;1.77;1.53;;;12.20;99.90;;;;;;4998878;28;20443;-46
2024/03/31 02:59:40;;;;;;;3.37;1.23;;;12.20;99.90;;;;;;4987665;28;20477;-46
2024/03/31 03:02:08;;;;;;;3.30;1.50;;;12.20;99.90;;;;;;4974938;28;20519;-46
2024/03/31 03:04:40;;;;;;;3.53;1.80;;;12.20;99.90;;;;;;4984872;28;20528;-46
2024/03/31 03:07:08;;;;;;;2.20;1.60;;;12.20;99.90;;;;;;4998619;28;20428;-45
2024/03/31 03:09:35;;;;;;;2.30;1.57;;;12.20;99.90;;;;;;4981334;28;20910;-46
2024/03/31 03:12:02;;;;;;;3.43;1.50;;;12.20;99.90;;;;;;4988194;28;20515;-45
2024/03/31 03:14:28;;;;;;;2.33;1.40;;;12.20;99.90;;;;;;4976492;28;20446;-47
2024/03/31 03:16:55;;;;;;;2.10;1.50;;;12.10;99.90;;;;;;4989205;28;20445;-47
2024/03/31 03:19:22;;;;;;;3.00;1.63;;;12.10;99.90;;;;;;4990258;28;20474;-46
2024/03/31 03:21:53;;;;;;;2.30;1.40;;;12.20;99.90;;;;;;4996133;28;21010;-46
2024/03/31 03:24:23;;;;;;;2.53;1.03;;;12.10;99.90;;;;;;4983600;28;20439;-46
2024/03/31 03:26:50;;;;;;;2.00;1.20;;;12.20;99.90;;;;;;4984894;28;20448;-46
2024/03/31 03:29:19;;;;;;;2.70;1.40;;;12.10;99.90;;;;;;4987095;28;20492;-46
2024/03/31 03:31:46;;;;;;;2.03;1.30;;;12.20;99.90;;;;;;4977525;28;20935;-47
2024/03/31 03:34:16;;;;;;;4.00;1.87;;;12.20;99.90;;;;;;4990891;28;20449;-46
2024/03/31 03:36:43;;;;;;;2.20;1.60;;;12.10;99.90;;;;;;4974112;28;20430;-46
2024/03/31 03:39:10;;;;;;;2.40;1.23;;;12.10;99.90;;;;;;5000881;28;20498;-46
2024/03/31 03:41:37;;;;;;;3.73;1.30;;;12.10;99.90;;;;;;4995395;28;20942;-46
2024/03/31 03:44:05;;;;;;;2.50;1.23;;;12.10;99.90;;;;;;4977573;28;20868;-46
2024/03/31 03:46:31;;;;;;;2.10;1.20;;;12.10;99.90;;;;;;4973790;28;20533;-46
2024/03/31 03:48:59;;;;;;;1.60;1.20;;;12.10;99.90;;;;;;4974386;28;20991;-46
2024/03/31 03:51:25;;;;;;;1.73;1.17;;;12.10;99.90;;;;;;4973636;28;20434;-47
2024/03/31 03:53:53;;;;;;;1.50;1.20;;;12.10;99.90;;;;;;4997494;28;20449;-46
2024/03/31 03:56:19;;;;;;;1.73;1.30;;;12.10;99.90;;;;;;5000723;28;20483;-46
2024/03/31 03:58:47;;;;;;;1.40;1.10;;;12.10;99.90;;;;;;4986382;28;20469;-47
2024/03/31 04:01:14;;;;;;;2.07;1.23;;;12.10;99.90;;;;;;4988957;28;20437;-46
2024/03/31 04:03:41;;;;;;;1.93;1.30;;;12.10;99.90;;;;;;4997335;28;20464;-46
2024/03/31 04:06:07;;;;;;;1.73;1.00;;;12.10;99.90;;;;;;4995096;28;20445;-46
2024/03/31 04:08:35;;;;;;;2.10;1.20;;;12.10;99.90;;;;;;4977033;28;20465;-45
2024/03/31 04:11:01;;;;;;;1.57;1.13;;;12.10;99.90;;;;;;4979929;28;20564;-46
2024/03/31 04:13:30;;;;;;;3.40;1.20;;;12.10;99.90;;;;;;4997019;28;20947;-46
2024/03/31 04:15:58;;;;;;;1.73;1.07;;;12.10;99.90;;;;;;4982380;28;20476;-45
2024/03/31 04:18:29;;;;;;;3.30;2.10;;;12.10;99.90;;;;;;4997014;28;21044;-47
2024/03/31 04:20:55;;;;;;;1.90;1.27;;;12.10;99.90;;;;;;4999446;28;20976;-46
2024/03/31 04:23:22;;;;;;;4.17;1.10;;;12.10;99.90;;;;;;4984577;28;20450;-46
2024/03/31 04:25:51;;;;;;;5.57;2.37;;;12.10;99.90;;;;;;4993325;28;21012;-46
2024/03/31 04:28:18;;;;;;;2.10;1.30;;;12.10;99.90;;;;;;5006341;28;20528;-46
2024/03/31 04:30:45;;;;;;;4.90;1.30;;;12.10;99.90;;;;;;4994021;28;20524;-46
2024/03/31 04:33:12;;;;;;;1.83;1.03;;;12.10;99.90;;;;;;4995911;28;20803;-46
2024/03/31 04:35:41;;;;;;;1.73;1.13;;;12.10;99.90;;;;;;4988947;28;20970;-46
2024/03/31 04:38:10;;;;;;;1.83;1.40;;;12.10;99.90;;;;;;4986125;28;20453;-46
2024/03/31 04:40:37;;;;;;;2.40;1.17;;;12.10;99.90;;;;;;5003609;28;20461;-46
2024/03/31 04:43:06;;;;;;;2.30;1.50;;;12.00;99.90;;;;;;5008933;28;20444;-46
2024/03/31 04:45:37;;;;;;;4.90;1.10;;;12.00;99.90;;;;;;4989116;28;20461;-45
2024/03/31 04:48:03;;;;;;;2.70;1.17;;;12.00;99.90;;;;;;4986088;28;20430;-46
2024/03/31 04:50:37;;;;;;;1.93;1.10;;;12.00;99.90;;;;;;4995864;28;20450;-46
2024/03/31 04:53:04;;;;;;;2.03;1.10;;;12.00;99.90;;;;;;5007794;28;20441;-46
2024/03/31 04:55:36;;;;;;;3.00;1.47;;;12.00;99.90;;;;;;4991582;28;20444;-46
2024/03/31 04:58:02;;;;;;;3.07;1.10;;;12.00;99.90;;;;;;5000065;28;20551;-46
2024/03/31 05:00:29;;;;;;;1.70;1.60;;;12.00;99.90;;;;;;4987667;28;20934;-46
2024/03/31 05:02:56;;;;;;;3.80;1.07;;;12.00;99.90;;;;;;4992558;28;20441;-46
2024/03/31 05:05:26;;;;;;;2.97;1.60;;;12.00;99.90;;;;;;4988211;28;20437;-47
2024/03/31 05:07:56;;;;;;;1.60;1.20;;;12.00;99.90;;;;;;4995866;28;20442;-46
2024/03/31 05:10:23;;;;;;;2.13;1.13;;;12.00;99.90;;;;;;4976243;28;20858;-46
2024/03/31 05:12:50;;;;;;;2.50;1.17;;;12.00;99.90;;;;;;4986523;28;20442;-46
2024/03/31 05:15:17;;;;;;;1.50;0.90;;;12.00;99.90;;;;;;4979634;28;20475;-46
2024/03/31 05:17:44;;;;;;;1.70;1.20;;;12.00;99.90;;;;;;4980285;28;20454;-46
2024/03/31 05:20:12;;;;;;;3.10;0.93;;;12.00;99.90;;;;;;4990320;28;20560;-45
2024/03/31 05:22:38;;;;;;;2.20;1.47;;;12.00;99.90;;;;;;4979509;28;20471;-46
2024/03/31 05:25:06;;;;;;;3.50;1.20;;;12.00;99.90;;;;;;4977680;28;20503;-46
2024/03/31 05:27:34;;;;;;;1.50;1.00;;;12.00;99.90;;;;;;4986582;28;20472;-46
2024/03/31 05:30:01;;;;;;;5.83;1.30;;;12.00;99.90;;;;;;4985263;28;20461;-46
2024/03/31 05:32:27;;;;;;;3.20;1.30;;;12.00;99.90;;;;;;4994799;28;20564;-46
2024/03/31 05:35:07;;;;;;;2.10;1.03;;;12.00;99.90;;;;;;5005747;28;20463;-46
2024/03/31 05:37:33;;;;;;;2.20;1.33;;;12.00;99.90;;;;;;4991359;28;20990;-46
2024/03/31 05:40:02;;;;;;;2.57;1.27;;;12.00;99.90;;;;;;5001215;28;20564;-46
2024/03/31 05:42:30;;;;;;;3.50;1.20;;;12.00;99.90;;;;;;4985426;28;20902;-46
2024/03/31 05:44:58;;;;;;;2.93;1.70;;;12.00;99.90;;;;;;4996540;28;20854;-46
2024/03/31 05:47:25;;;;;;;1.90;1.20;;;12.00;99.90;;;;;;4980608;28;20448;-46
2024/03/31 05:49:52;;;;;;;3.80;2.30;;;12.00;99.90;;;;;;4999121;28;20459;-46
2024/03/31 05:52:18;;;;;;;2.53;1.20;;;12.00;99.90;;;;;;5001626;28;20912;-46
2024/03/31 05:54:45;;;;;;;1.63;1.20;;;12.00;99.90;;;;;;4979205;28;20955;-46
2024/03/31 05:57:11;;;;;;;4.57;1.80;;;11.90;99.90;;;;;;4990698;28;20544;-46
2024/03/31 05:59:40;;;;;;;2.87;1.30;;;11.90;99.90;;;;;;4975800;28;20557;-46
2024/03/31 06:02:07;;;;;;;2.13;1.40;;;12.00;99.90;;;;;;5002605;28;20438;-46
2024/03/31 06:04:34;;;;;;;4.70;1.30;;;12.00;99.90;;;;;;4987338;28;20449;-46
2024/03/31 06:07:01;;;;;;;2.30;1.50;;;11.90;99.90;;;;;;4989064;28;20441;-45
2024/03/31 06:09:28;;;;;;;3.10;1.90;;;11.90;99.90;;;;;;4983279;28;20441;-45
2024/03/31 06:11:55;;;;;;;2.37;1.33;;;11.90;99.90;;;;;;4984741;28;20513;-45
2024/03/31 06:14:22;;;;;;;6.63;1.77;;;11.90;99.90;;;;;;4976209;28;20473;-46
2024/03/31 06:16:49;;;;;;;4.30;1.53;;;11.90;99.90;;;;;;4996450;28;20527;-46
2024/03/31 06:19:16;;;;;;;2.97;1.33;;;11.90;99.90;;;;;;4998567;28;20474;-45
2024/03/31 06:21:42;;;;;;;2.03;1.47;;;11.90;99.90;;;;;;4999922;28;20464;-46
2024/03/31 06:24:11;;;;;;;1.97;1.30;;;11.90;99.90;;;;;;5001809;28;20448;-45
2024/03/31 06:26:37;;;;;;;3.30;1.80;;;11.90;99.90;;;;;;4977009;28;20425;-46
2024/03/31 06:29:05;;;;;;;2.80;1.70;;;11.90;99.90;;;;;;4978026;28;20460;-46
2024/03/31 06:31:32;;;;;;;3.83;1.90;;;11.90;99.90;;;;;;4984404;28;20591;-46
2024/03/31 06:34:09;;;;;;;5.27;1.70;;;11.90;99.90;;;;;;4976596;28;20955;-46
2024/03/31 06:36:35;;;;;;;3.50;1.80;;;11.90;99.90;;;;;;4989479;28;20440;-46
2024/03/31 06:39:02;;;;;;;3.07;1.63;;;11.90;99.90;;;;;;4987833;28;20964;-46
2024/03/31 06:41:29;;;;;;;1.90;1.40;;;11.90;99.90;;;;;;4974336;28;20437;-46
2024/03/31 06:43:56;;;;;;;3.13;1.30;;;11.90;99.90;;;;;;4988063;28;20446;-46
2024/03/31 06:46:25;;;;;;;4.07;1.60;;;11.90;99.90;;;;;;4975007;28;20839;-46
2024/03/31 06:48:52;;;;;;;2.00;1.80;;;11.90;99.90;;;;;;4994395;28;20466;-46
2024/03/31 06:51:20;;;;;;;2.03;1.60;;;11.90;99.90;;;;;;4981375;28;20511;-46
2024/03/31 06:53:50;;;;;;;6.17;1.37;;;11.90;99.90;;;;;;4983101;28;20438;-46
2024/03/31 06:56:16;;;;;;;3.60;2.17;;;11.90;99.90;;;;;;4982027;28;20448;-46
2024/03/31 06:58:44;;;;;;;6.97;2.17;;;11.90;99.90;;;;;;4982323;28;20483;-46
2024/03/31 07:01:11;;;;;;;2.70;1.60;;;11.90;99.90;;;;;;4980843;28;20469;-46
2024/03/31 07:03:38;;;;;;;6.90;1.47;;;11.90;99.90;;;;;;4995744;28;20437;-46
2024/03/31 07:06:04;;;;;;;4.00;1.50;;;11.90;99.90;;;;;;4982713;28;20484;-46
2024/03/31 07:08:33;;;;;;;4.80;1.93;;;11.90;99.90;;;;;;4980637;28;20468;-47
2024/03/31 07:11:03;;;;;;;5.77;1.37;;;11.90;99.90;;;;;;4993022;28;20536;-46
2024/03/31 07:13:30;;;;;;;2.63;1.40;;;11.90;99.90;;;;;;4980530;28;20438;-46
2024/03/31 07:15:56;;;;;;;3.10;1.37;;;11.90;99.90;;;;;;4988491;28;20468;-46
2024/03/31 07:18:23;;;;;;;4.47;1.63;;;11.90;99.90;;;;;;4991728;28;20555;-46
2024/03/31 07:20:50;;;;;;;4.10;1.77;;;11.90;99.90;;;;;;4998134;28;20483;-46
2024/03/31 07:23:17;;;;;;;2.33;1.43;;;11.90;99.90;;;;;;4977547;28;20429;-46
2024/03/31 07:25:44;;;;;;;3.70;1.77;;;11.90;99.90;;;;;;4984741;28;20539;-46
2024/03/31 07:28:12;;;;;;;2.37;1.60;;;11.90;99.90;;;;;;4975701;28;20480;-46
2024/03/31 07:30:41;;;;;;;2.10;1.30;;;11.90;99.90;;;;;;4975874;28;21049;-46
2024/03/31 07:33:08;;;;;;;1.70;1.00;;;11.90;99.90;;;;;;4990103;28;20437;-46
2024/03/31 07:35:36;;;;;;;2.07;1.40;;;11.90;99.90;;;;;;4988046;28;20438;-46
2024/03/31 07:38:03;;;;;;;2.27;1.67;;;11.90;99.90;;;;;;5002168;28;20520;-46
2024/03/31 07:40:30;;;;;;;2.10;1.13;;;11.90;99.90;;;;;;4993921;28;20556;-46
2024/03/31 07:42:59;;;;;;;6.07;1.60;;;11.90;99.90;;;;;;4994609;28;21003;-46
2024/03/31 07:45:25;;;;;;;3.43;1.63;;;11.90;99.90;;;;;;5001224;28;20575;-46
2024/03/31 07:47:52;;;;;;;3.83;1.20;;;11.90;99.90;;;;;;5002607;28;20513;-46
2024/03/31 07:50:21;;;;;;;1.90;1.10;;;11.90;99.90;;;;;;4993058;28;20464;-46
2024/03/31 07:52:48;;;;;;;2.20;1.20;;;11.90;99.90;;;;;;4999774;28;20941;-46
2024/03/31 07:55:14;;;;;;;1.33;1.00;;;11.90;99.90;;;;;;5006695;28;20438;-46
2024/03/31 07:57:42;;;;;;;3.23;0.90;;;11.90;99.90;;;;;;5003339;28;20477;-46
2024/03/31 08:00:10;;;;;;;1.30;0.90;;;11.90;99.90;;;;;;5003518;28;20466;-46
2024/03/31 08:02:40;;;;;;;3.20;1.10;;;12.00;99.90;;;;;;5003514;28;20442;-46
2024/03/31 08:05:06;;;;;;;3.00;1.20;;;12.00;99.90;;;;;;4977188;28;20532;-46
2024/03/31 08:07:33;;;;;;;2.53;1.07;;;12.00;99.90;;;;;;4997002;28;20449;-46
2024/03/31 08:10:01;;;;;;;3.27;1.10;;;12.00;99.90;;;;;;5005573;28;20472;-46
2024/03/31 08:12:28;;;;;;;1.93;1.00;;;12.00;99.90;;;;;;4992857;28;20529;-46
2024/03/31 08:14:54;;;;;;;2.70;1.00;;;12.00;99.90;;;;;;5001298;28;20445;-47
2024/03/31 08:17:23;;;;;;;1.70;1.23;;;12.00;99.90;;;;;;5003994;28;20461;-46
2024/03/31 08:19:50;;;;;;;1.50;1.07;;;12.00;99.90;;;;;;4993489;28;20556;-46
2024/03/31 08:22:18;;;;;;;2.47;1.30;;;12.00;99.90;;;;;;4997563;28;20540;-46
2024/03/31 08:24:46;;;;;;;2.60;0.93;;;12.00;99.90;;;;;;4988075;28;20500;-46
2024/03/31 08:27:13;;;;;;;1.90;1.30;;;12.10;99.90;;;;;;5000964;28;20445;-46
2024/03/31 08:29:40;;;;;;;2.27;1.17;;;12.10;99.90;;;;;;5006459;28;20457;-46
2024/03/31 08:32:08;;;;;;;3.23;1.10;;;12.10;99.90;;;;;;4998794;28;20943;-46
2024/03/31 08:34:36;;;;;;;2.17;1.00;;;12.10;99.90;;;;;;5005017;28;20430;-46
2024/03/31 08:37:03;;;;;;;3.80;1.00;;;12.10;99.90;;;;;;5006525;28;20483;-46
2024/03/31 08:39:29;;;;;;;1.30;0.93;;;12.10;99.90;;;;;;4999182;28;20504;-46
2024/03/31 08:42:00;;;;;;;2.90;1.00;;;12.10;99.90;;;;;;4999650;28;20437;-46
2024/03/31 08:44:28;;;;;;;2.87;1.17;;;12.10;99.90;;;;;;4991058;28;20929;-46
2024/03/31 08:46:56;;;;;;;2.20;1.27;;;12.10;99.90;;;;;;5007441;28;20520;-46
2024/03/31 08:49:22;;;;;;;1.17;0.70;;;12.10;99.90;;;;;;4992377;28;20474;-46
2024/03/31 08:51:51;;;;;;;2.17;1.20;;;12.20;99.90;;;;;;5004338;28;20864;-46
2024/03/31 08:54:18;;;;;;;2.23;1.27;;;12.20;99.90;;;;;;4992649;28;20573;-46
2024/03/31 08:56:45;;;;;;;1.43;0.93;;;12.20;99.90;;;;;;4979679;28;20520;-47
2024/03/31 08:59:11;;;;;;;2.57;1.10;;;12.20;99.90;;;;;;4992690;28;21021;-46
2024/03/31 09:01:39;;;;;;;2.53;0.80;;;12.20;99.90;;;;;;4992643;28;20478;-46
2024/03/31 09:04:06;;;;;;;2.63;1.13;;;12.20;99.90;;;;;;5001652;28;20454;-47
2024/03/31 09:06:34;;;;;;;1.70;1.10;;;12.20;99.90;;;;;;4996802;28;20453;-46
2024/03/31 09:09:04;;;;;;;1.33;0.83;;;12.20;99.90;;;;;;4996008;28;20451;-46
2024/03/31 09:11:32;;;;;;;1.47;0.93;;;12.20;99.90;;;;;;4996132;28;20521;-47
2024/03/31 09:13:58;;;;;;;2.87;1.17;;;12.20;99.90;;;;;;4999624;28;20544;-46
2024/03/31 09:16:25;;;;;;;3.67;1.10;;;12.20;99.90;;;;;;4992319;28;20436;-48
2024/03/31 09:18:52;;;;;;;2.07;0.97;;;12.20;99.90;;;;;;4999531;28;20526;-47
2024/03/31 09:21:19;;;;;;;2.63;1.07;;;12.20;99.90;;;;;;4999391;28;20838;-46
2024/03/31 09:23:46;;;;;;;1.93;0.97;;;12.20;99.90;;;;;;4992096;28;20564;-45
2024/03/31 09:26:14;;;;;;;2.83;1.17;;;12.20;99.90;;;;;;4994270;28;20530;-47
2024/03/31 09:28:42;;;;;;;2.37;1.20;;;12.20;99.90;;;;;;4999953;28;20473;-47
2024/03/31 09:31:08;;;;;;;3.07;1.13;;;12.20;99.90;;;;;;5005710;28;20531;-46
2024/03/31 09:33:37;;;;;;;1.60;0.97;;;12.20;99.90;;;;;;4997320;28;20921;-46
2024/03/31 09:36:04;;;;;;;3.27;1.53;;;12.20;99.90;;;;;;4995074;28;20536;-46
2024/03/31 09:38:31;;;;;;;2.50;1.40;;;12.20;99.90;;;;;;4991816;28;20449;-46
2024/03/31 09:40:58;;;;;;;2.43;0.97;;;12.20;99.90;;;;;;4999054;28;21046;-46
2024/03/31 09:43:27;;;;;;;4.00;1.20;;;12.20;99.90;;;;;;4992436;28;20533;-46
2024/03/31 09:45:53;;;;;;;3.30;1.17;;;12.30;99.90;;;;;;4992034;28;20463;-47
2024/03/31 09:48:26;;;;;;;4.77;1.30;;;12.30;99.90;;;;;;4983446;28;20513;-46
2024/03/31 09:51:01;;;;;;;4.03;1.70;;;12.30;99.90;;;;;;4992097;28;20440;-48
2024/03/31 09:53:30;;;;;;;2.70;1.40;;;12.30;99.90;;;;;;4996965;28;20452;-47
2024/03/31 09:56:02;;;;;;;3.70;1.80;;;12.30;99.90;;;;;;5001471;28;20441;-47
2024/03/31 09:58:34;;;;;;;4.70;1.20;;;12.30;99.90;;;;;;5000395;28;20552;-46
2024/03/31 10:01:03;;;;;;;2.00;1.30;;;12.30;99.90;;;;;;4998862;28;20464;-47
2024/03/31 10:03:35;;;;;;;2.07;1.10;;;12.30;99.90;;;;;;4990662;28;20427;-46
2024/03/31 10:06:02;;;;;;;4.03;1.37;;;12.30;99.90;;;;;;4996596;28;20484;-48
2024/03/31 10:08:30;;;;;;;3.20;1.10;;;12.30;99.90;;;;;;4998680;28;20533;-46
2024/03/31 10:10:57;;;;;;;3.17;1.30;;;12.30;99.90;;;;;;4998848;28;20442;-47
2024/03/31 10:13:26;;;;;;;4.60;1.07;;;12.30;99.90;;;;;;4995079;28;20468;-46
2024/03/31 10:15:55;;;;;;;1.80;1.00;;;12.30;99.90;;;;;;4997598;28;20434;-45
2024/03/31 10:18:23;;;;;;;2.43;0.93;;;12.30;99.90;;;;;;5007625;28;20441;-46
2024/03/31 10:20:50;;;;;;;2.90;1.20;;;12.30;99.90;;;;;;4997956;28;20500;-46
2024/03/31 10:23:19;;;;;;;2.70;1.03;;;12.30;99.90;;;;;;5000893;28;20592;-46
2024/03/31 10:25:46;;;;;;;2.30;1.63;;;12.30;99.90;;;;;;4998888;28;20430;-46
2024/03/31 10:28:14;;;;;;;7.03;1.37;;;12.30;99.90;;;;;;4996474;28;20516;-46
2024/03/31 10:30:41;;;;;;;4.37;1.00;;;12.30;99.90;;;;;;4993320;28;20425;-46
2024/03/31 10:33:10;;;;;;;3.30;1.20;;;12.30;99.90;;;;;;4998180;28;20953;-45
2024/03/31 10:35:38;;;;;;;1.80;1.10;;;12.30;99.90;;;;;;4997342;28;20449;-46
2024/03/31 10:38:06;;;;;;;3.03;1.40;;;12.30;99.90;;;;;;4996983;28;20481;-46
2024/03/31 10:40:32;;;;;;;2.40;1.13;;;12.30;99.90;;;;;;4997239;28;20546;-46
2024/03/31 10:43:00;;;;;;;3.40;0.90;;;12.30;99.90;;;;;;5000983;28;20469;-46
2024/03/31 10:45:26;;;;;;;1.73;1.10;;;12.30;99.90;;;;;;5001037;28;20433;-46
2024/03/31 10:47:55;;;;;;;2.20;0.90;;;12.30;99.90;;;;;;4996850;28;20438;-46
2024/03/31 10:50:24;;;;;;;2.00;0.97;;;12.30;99.90;;;;;;5000479;28;20449;-47
2024/03/31 10:52:52;;;;;;;1.70;0.83;;;12.30;99.90;;;;;;4998998;28;20813;-46
2024/03/31 10:55:20;;;;;;;4.57;1.60;;;12.30;99.90;;;;;;4995407;28;20422;-46
2024/03/31 10:57:56;;;;;;;1.50;0.73;;;12.30;99.90;;;;;;4990921;28;20489;-46
2024/03/31 11:00:23;;;;;;;1.70;1.00;;;12.30;99.90;;;;;;4994623;28;20496;-46
2024/03/31 11:02:50;;;;;;;3.70;1.43;;;12.30;99.90;;;;;;4994769;28;20445;-46
2024/03/31 11:05:19;;;;;;;4.63;1.10;;;12.30;99.90;;;;;;4998446;28;20523;-47
2024/03/31 11:07:49;;;;;;;2.43;0.80;;;12.30;99.90;;;;;;4992629;28;20459;-46
2024/03/31 11:10:15;;;;;;;1.70;0.70;;;12.30;99.90;;;;;;4983191;28;20457;-46
2024/03/31 11:12:43;;;;;;;1.87;0.73;;;12.30;99.90;;;;;;4997174;28;20462;-46
2024/03/31 11:15:10;;;;;;;2.20;0.97;;;12.40;99.90;;;;;;4991509;28;20428;-46
2024/03/31 11:17:41;;;;;;;2.40;0.90;;;12.40;99.90;;;;;;4991611;28;20524;-46
2024/03/31 11:20:09;;;;;;;1.73;0.90;;;12.40;99.90;;;;;;4998943;28;20563;-46
2024/03/31 11:22:37;;;;;;;2.60;0.93;;;12.40;99.90;;;;;;4992156;28;20449;-46
2024/03/31 11:25:06;;;;;;;2.23;1.00;;;12.40;99.90;;;;;;4997935;28;20864;-47
2024/03/31 11:27:35;;;;;;;2.17;0.80;;;12.30;99.90;;;;;;4995906;28;20438;-46
2024/03/31 11:30:03;;;;;;;2.50;1.00;;;12.30;99.90;;;;;;4997279;28;20458;-46
2024/03/31 11:32:31;;;;;;;5.10;1.20;;;12.30;99.90;;;;;;4989542;28;20462;-46
2024/03/31 11:34:59;;;;;;;1.90;0.90;;;12.30;99.90;;;;;;4989812;28;20474;-47
2024/03/31 11:37:26;;;;;;;2.47;0.90;;;12.30;99.90;;;;;;5004402;28;21004;-46
2024/03/31 11:39:57;;;;;;;3.10;1.23;;;12.30;99.90;;;;;;5001214;28;20444;-46
2024/03/31 11:42:26;;;;;;;2.93;1.07;;;12.30;99.90;;;;;;4994811;28;20555;-47
2024/03/31 11:44:53;;;;;;;3.37;1.00;;;12.30;99.90;;;;;;4998544;28;20464;-47
2024/03/31 11:47:20;;;;;;;3.40;1.10;;;12.30;99.90;;;;;;4998374;28;20518;-46
2024/03/31 11:49:47;;;;;;;2.27;0.90;;;12.30;99.90;;;;;;4996612;28;21061;-47
2024/03/31 11:52:15;;;;;;;3.30;0.80;;;12.30;99.90;;;;;;4986114;28;20951;-48
2024/03/31 11:54:41;;;;;;;4.43;2.00;;;12.50;99.90;;;;;;4996663;28;20560;-45
2024/03/31 11:57:10;;;;;;;4.13;1.40;;;12.60;99.90;;;;;;4994974;28;20970;-46
2024/03/31 11:59:37;;;;;;;3.40;1.13;;;12.70;99.90;;;;;;4995808;28;20825;-47
2024/03/31 12:02:05;;;;;;;5.50;2.00;;;12.80;99.90;;;;;;4999642;28;20562;-47
2024/03/31 12:04:31;;;;;;;3.23;1.33;;;12.80;99.90;;;;;;4988784;28;20798;-47
2024/03/31 12:06:59;;;;;;;4.77;1.67;;;12.70;99.90;;;;;;4992549;28;20457;-48
2024/03/31 12:09:25;;;;;;;3.07;1.00;;;12.70;99.90;;;;;;4992500;28;20453;-47
2024/03/31 12:11:53;;;;;;;5.67;1.30;;;12.60;99.90;;;;;;4988537;28;20496;-48
2024/03/31 12:14:19;;;;;;;3.17;1.37;;;12.60;99.90;;;;;;4988745;28;20993;-47
2024/03/31 12:16:47;;;;;;;3.50;1.30;;;12.60;99.90;;;;;;5001212;28;20499;-49
2024/03/31 12:19:14;;;;;;;4.43;1.10;;;12.60;99.90;;;;;;4998988;28;21001;-46
2024/03/31 12:21:46;;;;;;;4.80;0.97;;;12.60;99.90;;;;;;4994539;28;20505;-47
2024/03/31 12:24:13;;;;;;;2.43;1.27;;;12.60;99.90;;;;;;5003451;28;20430;-47
2024/03/31 12:26:41;;;;;;;3.13;1.33;;;12.50;99.90;;;;;;5006156;28;20525;-47
2024/03/31 12:29:10;;;;;;;4.93;0.90;;;12.60;99.90;;;;;;5008807;28;20479;-47
2024/03/31 12:31:37;;;;;;;3.63;1.10;;;12.60;99.90;;;;;;4998407;28;20869;-47
2024/03/31 12:34:05;;;;;;;3.03;0.70;;;12.60;99.90;;;;;;4994086;28;20458;-47
2024/03/31 12:36:32;;;;;;;3.43;1.10;;;12.50;99.90;;;;;;4992147;28;20999;-48
2024/03/31 12:38:59;;;;;;;2.07;0.93;;;12.60;99.90;;;;;;4997662;28;20448;-50
2024/03/31 12:41:27;;;;;;;2.33;1.40;;;12.60;99.90;;;;;;4999170;28;20476;-49
2024/03/31 12:44:03;;;;;;;4.10;1.33;;;12.60;99.90;;;;;;4992266;28;21016;-47
2024/03/31 12:46:30;;;;;;;2.13;0.70;;;12.60;99.90;;;;;;5003869;28;20747;-47
2024/03/31 12:48:56;;;;;;;1.43;0.70;;;12.60;99.90;;;;;;4994941;28;20459;-47